sensor_id;sensor_type;location;lat;lon;timestamp;P1;durP1;ratioP1;P2;durP2;ratioP2
11269;SDS011;5692;48.956;9.200;2022-11-03T00:01:39;145.88;;;138.88;;
11269;SDS011;5692;48.956;9.200;2022-11-03T00:04:09;154.85;;;147.43;;
11269;SDS011;5692;48.956;9.200;2022-11-03T00:06:35;138.38;;;131.73;;
11269;SDS011;5692;48.956;9.200;2022-11-03T00:09:02;153.65;;;146.25;;
11269;SDS011;5692;48.956;9.200;2022-11-03T00:11:31;149.55;;;142.38;;
11269;SDS011;5692;48.956;9.200;2022-11-03T00:14:04;161.50;;;153.75;;
11269;SDS011;5692;48.956;9.200;2022-11-03T00:16:31;154.60;;;147.20;;
11269;SDS011;5692;48.956;9.200;2022-11-03T00:19:01;135.98;;;129.48;;
11269;SDS011;5692;48.956;9.200;2022-11-03T00:21:29;155.13;;;147.70;;
11269;SDS011;5692;48.956;9.200;2022-11-03T00:24:02;134.75;;;128.27;;
11269;SDS011;5692;48.956;9.200;2022-11-03T00:26:31;134.27;;;127.82;;
11269;SDS011;5692;48.956;9.200;2022-11-03T00:28:59;145.43;;;138.43;;
11269;SDS011;5692;48.956;9.200;2022-11-03T00:31:26;140.77;;;134.02;;
11269;SDS011;5692;48.956;9.200;2022-11-03T00:33:52;140.93;;;134.18;;
11269;SDS011;5692;48.956;9.200;2022-11-03T00:36:23;136.00;;;129.48;;
11269;SDS011;5692;48.956;9.200;2022-11-03T00:38:49;135.63;;;129.10;;
11269;SDS011;5692;48.956;9.200;2022-11-03T00:41:16;139.20;;;132.52;;
11269;SDS011;5692;48.956;9.200;2022-11-03T00:43:44;128.73;;;122.55;;
11269;SDS011;5692;48.956;9.200;2022-11-03T00:46:10;138.63;;;131.98;;
11269;SDS011;5692;48.956;9.200;2022-11-03T00:48:36;137.65;;;131.05;;
11269;SDS011;5692;48.956;9.200;2022-11-03T00:53:41;131.73;;;125.40;;
11269;SDS011;5692;48.956;9.200;2022-11-03T00:56:15;132.75;;;126.35;;
11269;SDS011;5692;48.956;9.200;2022-11-03T00:58:44;130.00;;;123.75;;
11269;SDS011;5692;48.956;9.200;2022-11-03T01:03:37;125.13;;;119.13;;
11269;SDS011;5692;48.956;9.200;2022-11-03T01:06:04;128.65;;;122.45;;
11269;SDS011;5692;48.956;9.200;2022-11-03T01:08:49;134.35;;;127.90;;
11269;SDS011;5692;48.956;9.200;2022-11-03T01:11:16;129.70;;;123.50;;
11269;SDS011;5692;48.956;9.200;2022-11-03T01:14:01;136.32;;;129.77;;
11269;SDS011;5692;48.956;9.200;2022-11-03T01:16:28;145.10;;;138.15;;
11269;SDS011;5692;48.956;9.200;2022-11-03T01:18:57;133.30;;;126.90;;
11269;SDS011;5692;48.956;9.200;2022-11-03T01:21:23;128.35;;;122.18;;
11269;SDS011;5692;48.956;9.200;2022-11-03T01:23:49;132.13;;;125.78;;
11269;SDS011;5692;48.956;9.200;2022-11-03T01:26:15;132.63;;;126.22;;
11269;SDS011;5692;48.956;9.200;2022-11-03T01:28:43;130.93;;;124.63;;
11269;SDS011;5692;48.956;9.200;2022-11-03T01:31:11;136.15;;;129.63;;
11269;SDS011;5692;48.956;9.200;2022-11-03T01:33:38;140.55;;;133.80;;
11269;SDS011;5692;48.956;9.200;2022-11-03T01:36:04;129.88;;;123.68;;
11269;SDS011;5692;48.956;9.200;2022-11-03T01:38:31;140.80;;;134.05;;
11269;SDS011;5692;48.956;9.200;2022-11-03T01:40:57;134.57;;;128.13;;
11269;SDS011;5692;48.956;9.200;2022-11-03T01:43:23;123.40;;;117.50;;
11269;SDS011;5692;48.956;9.200;2022-11-03T01:45:52;126.47;;;120.40;;
11269;SDS011;5692;48.956;9.200;2022-11-03T01:48:22;127.07;;;120.97;;
11269;SDS011;5692;48.956;9.200;2022-11-03T01:50:49;131.55;;;125.25;;
11269;SDS011;5692;48.956;9.200;2022-11-03T01:53:15;120.10;;;114.32;;
11269;SDS011;5692;48.956;9.200;2022-11-03T01:55:41;129.32;;;123.13;;
11269;SDS011;5692;48.956;9.200;2022-11-03T01:58:09;124.93;;;118.93;;
11269;SDS011;5692;48.956;9.200;2022-11-03T02:00:36;130.50;;;124.22;;
11269;SDS011;5692;48.956;9.200;2022-11-03T02:03:02;123.20;;;117.30;;
11269;SDS011;5692;48.956;9.200;2022-11-03T02:05:28;128.40;;;122.20;;
11269;SDS011;5692;48.956;9.200;2022-11-03T02:07:56;138.05;;;131.43;;
11269;SDS011;5692;48.956;9.200;2022-11-03T02:10:24;127.38;;;121.28;;
11269;SDS011;5692;48.956;9.200;2022-11-03T02:12:50;138.10;;;131.50;;
11269;SDS011;5692;48.956;9.200;2022-11-03T02:15:16;141.45;;;134.65;;
11269;SDS011;5692;48.956;9.200;2022-11-03T02:17:43;133.48;;;127.07;;
11269;SDS011;5692;48.956;9.200;2022-11-03T02:20:12;135.98;;;129.45;;
11269;SDS011;5692;48.956;9.200;2022-11-03T02:27:54;137.75;;;131.15;;
11269;SDS011;5692;48.956;9.200;2022-11-03T02:30:19;133.18;;;126.78;;
11269;SDS011;5692;48.956;9.200;2022-11-03T02:32:56;130.88;;;124.57;;
11269;SDS011;5692;48.956;9.200;2022-11-03T02:35:27;136.55;;;130.00;;
11269;SDS011;5692;48.956;9.200;2022-11-03T02:37:58;139.77;;;133.05;;
11269;SDS011;5692;48.956;9.200;2022-11-03T02:40:27;134.95;;;128.45;;
11269;SDS011;5692;48.956;9.200;2022-11-03T02:42:55;127.68;;;121.55;;
11269;SDS011;5692;48.956;9.200;2022-11-03T02:45:21;136.82;;;130.23;;
11269;SDS011;5692;48.956;9.200;2022-11-03T02:47:49;131.65;;;125.35;;
11269;SDS011;5692;48.956;9.200;2022-11-03T02:50:17;139.40;;;132.70;;
11269;SDS011;5692;48.956;9.200;2022-11-03T02:52:46;131.60;;;125.30;;
11269;SDS011;5692;48.956;9.200;2022-11-03T02:58:04;136.20;;;129.70;;
11269;SDS011;5692;48.956;9.200;2022-11-03T03:00:31;130.38;;;124.13;;
11269;SDS011;5692;48.956;9.200;2022-11-03T03:03:04;134.52;;;128.07;;
11269;SDS011;5692;48.956;9.200;2022-11-03T03:05:32;133.02;;;126.63;;
11269;SDS011;5692;48.956;9.200;2022-11-03T03:08:03;123.75;;;117.82;;
11269;SDS011;5692;48.956;9.200;2022-11-03T03:10:32;136.65;;;130.07;;
11269;SDS011;5692;48.956;9.200;2022-11-03T03:12:59;128.73;;;122.55;;
11269;SDS011;5692;48.956;9.200;2022-11-03T03:15:31;125.90;;;119.85;;
11269;SDS011;5692;48.956;9.200;2022-11-03T03:20:33;122.78;;;116.88;;
11269;SDS011;5692;48.956;9.200;2022-11-03T03:25:31;132.98;;;126.57;;
11269;SDS011;5692;48.956;9.200;2022-11-03T03:30:30;113.78;;;108.28;;
11269;SDS011;5692;48.956;9.200;2022-11-03T03:32:57;119.53;;;113.80;;
11269;SDS011;5692;48.956;9.200;2022-11-03T03:35:25;132.85;;;126.47;;
11269;SDS011;5692;48.956;9.200;2022-11-03T03:37:53;129.40;;;123.20;;
11269;SDS011;5692;48.956;9.200;2022-11-03T03:40:23;117.82;;;112.13;;
11269;SDS011;5692;48.956;9.200;2022-11-03T03:42:50;131.30;;;125.00;;
11269;SDS011;5692;48.956;9.200;2022-11-03T03:45:17;122.15;;;116.25;;
11269;SDS011;5692;48.956;9.200;2022-11-03T03:47:44;128.65;;;122.47;;
11269;SDS011;5692;48.956;9.200;2022-11-03T03:50:10;122.13;;;116.25;;
11269;SDS011;5692;48.956;9.200;2022-11-03T03:52:36;126.07;;;120.03;;
11269;SDS011;5692;48.956;9.200;2022-11-03T03:55:02;120.28;;;114.47;;
11269;SDS011;5692;48.956;9.200;2022-11-03T03:57:29;116.28;;;110.68;;
11269;SDS011;5692;48.956;9.200;2022-11-03T03:59:56;122.70;;;116.80;;
11269;SDS011;5692;48.956;9.200;2022-11-03T04:02:25;118.80;;;113.10;;
11269;SDS011;5692;48.956;9.200;2022-11-03T04:04:51;112.90;;;107.50;;
11269;SDS011;5692;48.956;9.200;2022-11-03T04:07:17;114.80;;;109.30;;
11269;SDS011;5692;48.956;9.200;2022-11-03T04:10:01;109.90;;;104.63;;
11269;SDS011;5692;48.956;9.200;2022-11-03T04:12:27;113.40;;;107.95;;
11269;SDS011;5692;48.956;9.200;2022-11-03T04:15:14;112.65;;;107.25;;
11269;SDS011;5692;48.956;9.200;2022-11-03T04:17:59;114.93;;;109.43;;
11269;SDS011;5692;48.956;9.200;2022-11-03T04:20:43;116.53;;;110.93;;
11269;SDS011;5692;48.956;9.200;2022-11-03T04:23:28;107.50;;;102.32;;
11269;SDS011;5692;48.956;9.200;2022-11-03T04:25:54;118.75;;;113.05;;
11269;SDS011;5692;48.956;9.200;2022-11-03T04:28:23;117.55;;;111.93;;
11269;SDS011;5692;48.956;9.200;2022-11-03T04:30:51;108.03;;;102.82;;
11269;SDS011;5692;48.956;9.200;2022-11-03T04:33:17;102.00;;;97.10;;
11269;SDS011;5692;48.956;9.200;2022-11-03T04:35:44;104.28;;;99.28;;
11269;SDS011;5692;48.956;9.200;2022-11-03T04:40:47;112.10;;;106.70;;
11269;SDS011;5692;48.956;9.200;2022-11-03T04:43:14;112.03;;;106.65;;
11269;SDS011;5692;48.956;9.200;2022-11-03T04:45:41;107.38;;;102.18;;
11269;SDS011;5692;48.956;9.200;2022-11-03T04:48:15;108.82;;;103.60;;
11269;SDS011;5692;48.956;9.200;2022-11-03T04:50:44;112.60;;;107.20;;
11269;SDS011;5692;48.956;9.200;2022-11-03T04:53:17;106.82;;;101.72;;
11269;SDS011;5692;48.956;9.200;2022-11-03T04:55:44;107.80;;;102.60;;
11269;SDS011;5692;48.956;9.200;2022-11-03T04:58:17;110.65;;;105.35;;
11269;SDS011;5692;48.956;9.200;2022-11-03T05:00:44;110.47;;;105.18;;
11269;SDS011;5692;48.956;9.200;2022-11-03T05:03:14;112.95;;;107.55;;
11269;SDS011;5692;48.956;9.200;2022-11-03T05:05:41;112.95;;;107.55;;
11269;SDS011;5692;48.956;9.200;2022-11-03T05:08:08;112.03;;;106.63;;
11269;SDS011;5692;48.956;9.200;2022-11-03T05:10:34;108.05;;;102.85;;
11269;SDS011;5692;48.956;9.200;2022-11-03T05:13:00;104.68;;;99.68;;
11269;SDS011;5692;48.956;9.200;2022-11-03T05:15:36;110.40;;;105.10;;
11269;SDS011;5692;48.956;9.200;2022-11-03T05:18:28;107.25;;;102.10;;
11269;SDS011;5692;48.956;9.200;2022-11-03T05:21:05;103.38;;;98.40;;
11269;SDS011;5692;48.956;9.200;2022-11-03T05:23:36;112.15;;;106.75;;
11269;SDS011;5692;48.956;9.200;2022-11-03T05:26:03;114.40;;;108.90;;
11269;SDS011;5692;48.956;9.200;2022-11-03T05:28:40;116.50;;;110.90;;
11269;SDS011;5692;48.956;9.200;2022-11-03T05:31:14;110.85;;;105.55;;
11269;SDS011;5692;48.956;9.200;2022-11-03T05:33:44;120.95;;;115.15;;
11269;SDS011;5692;48.956;9.200;2022-11-03T05:36:14;119.10;;;113.38;;
11269;SDS011;5692;48.956;9.200;2022-11-03T05:38:41;127.22;;;121.13;;
11269;SDS011;5692;48.956;9.200;2022-11-03T05:41:13;116.07;;;110.50;;
11269;SDS011;5692;48.956;9.200;2022-11-03T05:43:40;115.93;;;110.38;;
11269;SDS011;5692;48.956;9.200;2022-11-03T05:46:07;119.70;;;113.95;;
11269;SDS011;5692;48.956;9.200;2022-11-03T05:48:38;113.93;;;108.43;;
11269;SDS011;5692;48.956;9.200;2022-11-03T05:54:11;112.72;;;107.32;;
11269;SDS011;5692;48.956;9.200;2022-11-03T05:56:41;112.95;;;107.55;;
11269;SDS011;5692;48.956;9.200;2022-11-03T05:59:09;108.15;;;102.95;;
11269;SDS011;5692;48.956;9.200;2022-11-03T06:01:37;109.22;;;103.97;;
11269;SDS011;5692;48.956;9.200;2022-11-03T06:04:19;110.85;;;105.55;;
11269;SDS011;5692;48.956;9.200;2022-11-03T06:06:49;120.28;;;114.47;;
11269;SDS011;5692;48.956;9.200;2022-11-03T06:09:18;120.97;;;115.18;;
11269;SDS011;5692;48.956;9.200;2022-11-03T06:11:45;107.78;;;102.57;;
11269;SDS011;5692;48.956;9.200;2022-11-03T06:14:24;114.35;;;108.85;;
11269;SDS011;5692;48.956;9.200;2022-11-03T06:21:44;114.25;;;108.75;;
11269;SDS011;5692;48.956;9.200;2022-11-03T06:24:10;114.45;;;108.95;;
11269;SDS011;5692;48.956;9.200;2022-11-03T06:26:37;107.40;;;102.22;;
11269;SDS011;5692;48.956;9.200;2022-11-03T06:29:06;106.18;;;101.07;;
11269;SDS011;5692;48.956;9.200;2022-11-03T06:31:33;105.35;;;100.28;;
11269;SDS011;5692;48.956;9.200;2022-11-03T06:33:59;99.65;;;94.85;;
11269;SDS011;5692;48.956;9.200;2022-11-03T06:36:30;112.70;;;107.30;;
11269;SDS011;5692;48.956;9.200;2022-11-03T06:39:00;111.00;;;105.70;;
11269;SDS011;5692;48.956;9.200;2022-11-03T06:41:28;95.72;;;91.13;;
11269;SDS011;5692;48.956;9.200;2022-11-03T06:43:56;119.82;;;114.05;;
11269;SDS011;5692;48.956;9.200;2022-11-03T06:46:23;115.55;;;110.00;;
11269;SDS011;5692;48.956;9.200;2022-11-03T06:48:50;106.15;;;101.05;;
11269;SDS011;5692;48.956;9.200;2022-11-03T06:51:21;107.28;;;102.13;;
11269;SDS011;5692;48.956;9.200;2022-11-03T06:53:49;122.20;;;116.30;;
11269;SDS011;5692;48.956;9.200;2022-11-03T06:56:17;111.45;;;106.05;;
11269;SDS011;5692;48.956;9.200;2022-11-03T06:58:44;114.60;;;109.10;;
11269;SDS011;5692;48.956;9.200;2022-11-03T07:04:12;108.60;;;103.40;;
11269;SDS011;5692;48.956;9.200;2022-11-03T07:06:42;106.13;;;101.03;;
11269;SDS011;5692;48.956;9.200;2022-11-03T07:09:13;115.88;;;110.30;;
11269;SDS011;5692;48.956;9.200;2022-11-03T07:11:43;111.18;;;105.82;;
11269;SDS011;5692;48.956;9.200;2022-11-03T07:14:11;113.38;;;107.93;;
11269;SDS011;5692;48.956;9.200;2022-11-03T07:16:55;116.63;;;111.03;;
11269;SDS011;5692;48.956;9.200;2022-11-03T07:21:57;120.03;;;114.28;;
11269;SDS011;5692;48.956;9.200;2022-11-03T07:24:26;118.55;;;112.85;;
11269;SDS011;5692;48.956;9.200;2022-11-03T07:27:06;114.45;;;108.95;;
11269;SDS011;5692;48.956;9.200;2022-11-03T07:29:38;114.88;;;109.38;;
11269;SDS011;5692;48.956;9.200;2022-11-03T07:32:06;114.65;;;109.15;;
11269;SDS011;5692;48.956;9.200;2022-11-03T07:34:34;121.20;;;115.40;;
11269;SDS011;5692;48.956;9.200;2022-11-03T07:37:00;114.13;;;108.63;;
11269;SDS011;5692;48.956;9.200;2022-11-03T07:39:28;124.50;;;118.50;;
11269;SDS011;5692;48.956;9.200;2022-11-03T07:41:56;114.95;;;109.43;;
11269;SDS011;5692;48.956;9.200;2022-11-03T07:44:22;121.13;;;115.32;;
11269;SDS011;5692;48.956;9.200;2022-11-03T07:46:49;117.40;;;111.78;;
11269;SDS011;5692;48.956;9.200;2022-11-03T07:49:28;121.30;;;115.47;;
11269;SDS011;5692;48.956;9.200;2022-11-03T07:51:55;119.53;;;113.82;;
11269;SDS011;5692;48.956;9.200;2022-11-03T07:54:28;114.00;;;108.50;;
11269;SDS011;5692;48.956;9.200;2022-11-03T07:56:55;125.30;;;119.30;;
11269;SDS011;5692;48.956;9.200;2022-11-03T07:59:32;114.63;;;109.13;;
11269;SDS011;5692;48.956;9.200;2022-11-03T08:01:58;121.35;;;115.55;;
11269;SDS011;5692;48.956;9.200;2022-11-03T08:04:26;120.25;;;114.45;;
11269;SDS011;5692;48.956;9.200;2022-11-03T08:06:52;123.25;;;117.35;;
11269;SDS011;5692;48.956;9.200;2022-11-03T08:09:18;117.60;;;111.95;;
11269;SDS011;5692;48.956;9.200;2022-11-03T08:11:47;113.45;;;108.00;;
11269;SDS011;5692;48.956;9.200;2022-11-03T08:14:13;112.97;;;107.55;;
11269;SDS011;5692;48.956;9.200;2022-11-03T08:16:39;121.25;;;115.45;;
11269;SDS011;5692;48.956;9.200;2022-11-03T08:19:05;118.13;;;112.43;;
11269;SDS011;5692;48.956;9.200;2022-11-03T08:21:32;123.18;;;117.28;;
11269;SDS011;5692;48.956;9.200;2022-11-03T08:23:58;130.43;;;124.15;;
11269;SDS011;5692;48.956;9.200;2022-11-03T08:26:24;118.60;;;112.90;;
11269;SDS011;5692;48.956;9.200;2022-11-03T08:28:50;122.97;;;117.07;;
11269;SDS011;5692;48.956;9.200;2022-11-03T08:31:16;126.95;;;120.85;;
11269;SDS011;5692;48.956;9.200;2022-11-03T08:33:43;125.15;;;119.13;;
11269;SDS011;5692;48.956;9.200;2022-11-03T08:36:11;140.40;;;133.68;;
11269;SDS011;5692;48.956;9.200;2022-11-03T08:38:37;135.95;;;129.45;;
11269;SDS011;5692;48.956;9.200;2022-11-03T08:41:04;135.40;;;128.90;;
11269;SDS011;5692;48.956;9.200;2022-11-03T08:43:30;134.50;;;128.05;;
11269;SDS011;5692;48.956;9.200;2022-11-03T08:45:56;135.43;;;128.93;;
11269;SDS011;5692;48.956;9.200;2022-11-03T08:48:22;138.13;;;131.52;;
11269;SDS011;5692;48.956;9.200;2022-11-03T08:50:53;122.93;;;117.03;;
11269;SDS011;5692;48.956;9.200;2022-11-03T08:53:20;133.90;;;127.47;;
11269;SDS011;5692;48.956;9.200;2022-11-03T08:55:47;128.13;;;121.97;;
11269;SDS011;5692;48.956;9.200;2022-11-03T08:58:15;126.78;;;120.68;;
11269;SDS011;5692;48.956;9.200;2022-11-03T09:00:42;134.52;;;128.05;;
11269;SDS011;5692;48.956;9.200;2022-11-03T09:03:08;123.72;;;117.80;;
11269;SDS011;5692;48.956;9.200;2022-11-03T09:05:34;134.18;;;127.75;;
11269;SDS011;5692;48.956;9.200;2022-11-03T09:08:00;138.32;;;131.68;;
11269;SDS011;5692;48.956;9.200;2022-11-03T09:10:26;151.57;;;144.32;;
11269;SDS011;5692;48.956;9.200;2022-11-03T09:12:53;144.15;;;137.23;;
11269;SDS011;5692;48.956;9.200;2022-11-03T09:15:19;150.00;;;142.80;;
11269;SDS011;5692;48.956;9.200;2022-11-03T09:17:45;134.07;;;127.65;;
11269;SDS011;5692;48.956;9.200;2022-11-03T09:20:13;133.13;;;126.72;;
11269;SDS011;5692;48.956;9.200;2022-11-03T09:22:39;138.18;;;131.57;;
11269;SDS011;5692;48.956;9.200;2022-11-03T09:25:06;141.68;;;134.88;;
11269;SDS011;5692;48.956;9.200;2022-11-03T09:27:32;140.95;;;134.15;;
11269;SDS011;5692;48.956;9.200;2022-11-03T09:29:58;142.43;;;135.60;;
11269;SDS011;5692;48.956;9.200;2022-11-03T09:32:24;145.38;;;138.40;;
11269;SDS011;5692;48.956;9.200;2022-11-03T09:34:51;136.45;;;129.90;;
11269;SDS011;5692;48.956;9.200;2022-11-03T09:37:17;137.88;;;131.27;;
11269;SDS011;5692;48.956;9.200;2022-11-03T09:39:43;152.15;;;144.85;;
11269;SDS011;5692;48.956;9.200;2022-11-03T09:42:09;144.45;;;137.55;;
11269;SDS011;5692;48.956;9.200;2022-11-03T09:44:36;142.75;;;135.90;;
11269;SDS011;5692;48.956;9.200;2022-11-03T09:47:02;146.98;;;139.93;;
11269;SDS011;5692;48.956;9.200;2022-11-03T09:49:32;141.35;;;134.55;;
11269;SDS011;5692;48.956;9.200;2022-11-03T09:52:02;157.30;;;149.75;;
11269;SDS011;5692;48.956;9.200;2022-11-03T09:54:28;156.25;;;148.75;;
11269;SDS011;5692;48.956;9.200;2022-11-03T09:56:56;156.40;;;148.90;;
11269;SDS011;5692;48.956;9.200;2022-11-03T09:59:23;139.38;;;132.68;;
11269;SDS011;5692;48.956;9.200;2022-11-03T10:01:49;149.35;;;142.18;;
11269;SDS011;5692;48.956;9.200;2022-11-03T10:04:18;161.95;;;154.20;;
11269;SDS011;5692;48.956;9.200;2022-11-03T10:06:45;156.50;;;149.00;;
11269;SDS011;5692;48.956;9.200;2022-11-03T10:09:13;153.18;;;145.82;;
11269;SDS011;5692;48.956;9.200;2022-11-03T10:11:40;157.15;;;149.60;;
11269;SDS011;5692;48.956;9.200;2022-11-03T10:14:08;148.70;;;141.57;;
11269;SDS011;5692;48.956;9.200;2022-11-03T10:16:37;157.65;;;150.07;;
11269;SDS011;5692;48.956;9.200;2022-11-03T10:19:04;169.45;;;161.35;;
11269;SDS011;5692;48.956;9.200;2022-11-03T10:21:30;156.10;;;148.60;;
11269;SDS011;5692;48.956;9.200;2022-11-03T10:24:03;164.55;;;156.65;;
11269;SDS011;5692;48.956;9.200;2022-11-03T10:26:29;149.68;;;142.50;;
11269;SDS011;5692;48.956;9.200;2022-11-03T10:29:07;157.07;;;149.52;;
11269;SDS011;5692;48.956;9.200;2022-11-03T10:31:44;147.32;;;140.23;;
11269;SDS011;5692;48.956;9.200;2022-11-03T10:34:23;157.73;;;150.15;;
11269;SDS011;5692;48.956;9.200;2022-11-03T10:36:50;162.60;;;154.80;;
11269;SDS011;5692;48.956;9.200;2022-11-03T10:39:36;163.48;;;155.63;;
11269;SDS011;5692;48.956;9.200;2022-11-03T10:42:03;167.75;;;159.75;;
11269;SDS011;5692;48.956;9.200;2022-11-03T10:44:29;159.48;;;151.85;;
11269;SDS011;5692;48.956;9.200;2022-11-03T10:49:22;161.90;;;154.15;;
11269;SDS011;5692;48.956;9.200;2022-11-03T10:51:50;166.30;;;158.32;;
11269;SDS011;5692;48.956;9.200;2022-11-03T10:54:17;161.20;;;153.48;;
11269;SDS011;5692;48.956;9.200;2022-11-03T10:56:43;171.60;;;163.38;;
11269;SDS011;5692;48.956;9.200;2022-11-03T10:59:15;157.98;;;150.38;;
11269;SDS011;5692;48.956;9.200;2022-11-03T11:01:42;163.95;;;156.07;;
11269;SDS011;5692;48.956;9.200;2022-11-03T11:04:17;164.68;;;156.80;;
11269;SDS011;5692;48.956;9.200;2022-11-03T11:06:43;168.23;;;160.15;;
11269;SDS011;5692;48.956;9.200;2022-11-03T11:09:14;167.60;;;159.57;;
11269;SDS011;5692;48.956;9.200;2022-11-03T11:16:56;182.30;;;173.60;;
11269;SDS011;5692;48.956;9.200;2022-11-03T11:19:23;169.02;;;160.93;;
11269;SDS011;5692;48.956;9.200;2022-11-03T11:27:00;178.77;;;170.23;;
11269;SDS011;5692;48.956;9.200;2022-11-03T11:29:33;185.32;;;176.45;;
11269;SDS011;5692;48.956;9.200;2022-11-03T11:31:59;178.10;;;169.55;;
11269;SDS011;5692;48.956;9.200;2022-11-03T11:34:45;177.23;;;168.73;;
11269;SDS011;5692;48.956;9.200;2022-11-03T11:42:14;145.60;;;138.60;;
11269;SDS011;5692;48.956;9.200;2022-11-03T11:57:50;155.02;;;147.63;;
11269;SDS011;5692;48.956;9.200;2022-11-03T12:00:23;165.32;;;157.40;;
11269;SDS011;5692;48.956;9.200;2022-11-03T12:02:53;167.13;;;159.13;;
11269;SDS011;5692;48.956;9.200;2022-11-03T12:05:24;163.07;;;155.27;;
11269;SDS011;5692;48.956;9.200;2022-11-03T12:07:52;163.43;;;155.63;;
11269;SDS011;5692;48.956;9.200;2022-11-03T12:12:46;168.55;;;160.45;;
11269;SDS011;5692;48.956;9.200;2022-11-03T12:17:57;165.10;;;157.20;;
11269;SDS011;5692;48.956;9.200;2022-11-03T12:20:42;175.75;;;167.35;;
11269;SDS011;5692;48.956;9.200;2022-11-03T12:23:30;172.82;;;164.52;;
11269;SDS011;5692;48.956;9.200;2022-11-03T12:25:56;191.95;;;182.75;;
11269;SDS011;5692;48.956;9.200;2022-11-03T12:28:32;180.55;;;171.90;;
11269;SDS011;5692;48.956;9.200;2022-11-03T12:30:58;183.27;;;174.48;;
11269;SDS011;5692;48.956;9.200;2022-11-03T12:33:25;183.48;;;174.70;;
11269;SDS011;5692;48.956;9.200;2022-11-03T12:35:51;191.52;;;182.35;;
11269;SDS011;5692;48.956;9.200;2022-11-03T12:38:17;170.80;;;162.60;;
11269;SDS011;5692;48.956;9.200;2022-11-03T12:40:44;187.38;;;178.38;;
11269;SDS011;5692;48.956;9.200;2022-11-03T12:43:09;168.75;;;160.65;;
11269;SDS011;5692;48.956;9.200;2022-11-03T12:45:35;178.00;;;169.50;;
11269;SDS011;5692;48.956;9.200;2022-11-03T12:48:02;204.55;;;194.75;;
11269;SDS011;5692;48.956;9.200;2022-11-03T12:50:30;203.18;;;193.45;;
11269;SDS011;5692;48.956;9.200;2022-11-03T12:52:56;205.05;;;195.25;;
11269;SDS011;5692;48.956;9.200;2022-11-03T12:55:22;206.77;;;196.88;;
11269;SDS011;5692;48.956;9.200;2022-11-03T12:57:48;217.13;;;206.73;;
11269;SDS011;5692;48.956;9.200;2022-11-03T13:00:14;207.93;;;197.98;;
11269;SDS011;5692;48.956;9.200;2022-11-03T13:02:40;205.38;;;195.55;;
11269;SDS011;5692;48.956;9.200;2022-11-03T13:05:06;213.93;;;203.68;;
11269;SDS011;5692;48.956;9.200;2022-11-03T13:07:32;206.63;;;196.73;;
11269;SDS011;5692;48.956;9.200;2022-11-03T13:09:59;211.55;;;201.43;;
11269;SDS011;5692;48.956;9.200;2022-11-03T13:12:25;201.68;;;192.02;;
11269;SDS011;5692;48.956;9.200;2022-11-03T13:14:58;183.95;;;175.15;;
11269;SDS011;5692;48.956;9.200;2022-11-03T13:17:25;189.48;;;180.43;;
11269;SDS011;5692;48.956;9.200;2022-11-03T13:19:51;187.18;;;178.23;;
11269;SDS011;5692;48.956;9.200;2022-11-03T13:22:17;188.80;;;179.75;;
11269;SDS011;5692;48.956;9.200;2022-11-03T13:24:44;165.85;;;157.90;;
11269;SDS011;5692;48.956;9.200;2022-11-03T13:27:10;163.13;;;155.32;;
11269;SDS011;5692;48.956;9.200;2022-11-03T13:29:37;161.52;;;153.77;;
11269;SDS011;5692;48.956;9.200;2022-11-03T13:32:03;168.68;;;160.57;;
11269;SDS011;5692;48.956;9.200;2022-11-03T13:34:29;178.65;;;170.10;;
11269;SDS011;5692;48.956;9.200;2022-11-03T13:36:56;195.52;;;186.18;;
11269;SDS011;5692;48.956;9.200;2022-11-03T13:39:22;196.80;;;187.40;;
11269;SDS011;5692;48.956;9.200;2022-11-03T13:41:49;183.10;;;174.30;;
11269;SDS011;5692;48.956;9.200;2022-11-03T13:44:15;181.85;;;173.15;;
11269;SDS011;5692;48.956;9.200;2022-11-03T13:46:41;178.30;;;169.75;;
11269;SDS011;5692;48.956;9.200;2022-11-03T13:49:07;185.70;;;176.80;;
11269;SDS011;5692;48.956;9.200;2022-11-03T13:51:33;174.23;;;165.88;;
11269;SDS011;5692;48.956;9.200;2022-11-03T13:53:59;186.63;;;177.70;;
11269;SDS011;5692;48.956;9.200;2022-11-03T13:56:28;183.35;;;174.57;;
11269;SDS011;5692;48.956;9.200;2022-11-03T13:58:54;182.18;;;173.45;;
11269;SDS011;5692;48.956;9.200;2022-11-03T14:01:20;178.15;;;169.65;;
11269;SDS011;5692;48.956;9.200;2022-11-03T14:03:46;178.77;;;170.18;;
11269;SDS011;5692;48.956;9.200;2022-11-03T14:06:12;173.77;;;165.45;;
11269;SDS011;5692;48.956;9.200;2022-11-03T14:08:38;163.40;;;155.57;;
11269;SDS011;5692;48.956;9.200;2022-11-03T14:11:04;178.15;;;169.65;;
11269;SDS011;5692;48.956;9.200;2022-11-03T14:13:49;174.55;;;166.20;;
11269;SDS011;5692;48.956;9.200;2022-11-03T14:16:17;175.23;;;166.82;;
11269;SDS011;5692;48.956;9.200;2022-11-03T14:18:43;172.45;;;164.18;;
11269;SDS011;5692;48.956;9.200;2022-11-03T14:21:09;176.15;;;167.70;;
11269;SDS011;5692;48.956;9.200;2022-11-03T14:23:35;156.27;;;148.77;;
11269;SDS011;5692;48.956;9.200;2022-11-03T14:26:02;158.60;;;151.00;;
11269;SDS011;5692;48.956;9.200;2022-11-03T14:28:28;174.07;;;165.73;;
11269;SDS011;5692;48.956;9.200;2022-11-03T14:30:54;169.37;;;161.27;;
11269;SDS011;5692;48.956;9.200;2022-11-03T14:33:23;162.60;;;154.80;;
11269;SDS011;5692;48.956;9.200;2022-11-03T14:35:50;151.60;;;144.30;;
11269;SDS011;5692;48.956;9.200;2022-11-03T14:38:16;160.85;;;153.15;;
11269;SDS011;5692;48.956;9.200;2022-11-03T14:40:42;164.65;;;156.75;;
11269;SDS011;5692;48.956;9.200;2022-11-03T14:43:27;166.82;;;158.82;;
11269;SDS011;5692;48.956;9.200;2022-11-03T14:45:53;171.15;;;162.95;;
11269;SDS011;5692;48.956;9.200;2022-11-03T14:48:19;170.10;;;161.95;;
11269;SDS011;5692;48.956;9.200;2022-11-03T14:50:45;169.30;;;161.20;;
11269;SDS011;5692;48.956;9.200;2022-11-03T14:53:11;171.35;;;163.15;;
11269;SDS011;5692;48.956;9.200;2022-11-03T14:55:37;177.90;;;169.40;;
11269;SDS011;5692;48.956;9.200;2022-11-03T14:58:03;165.57;;;157.67;;
11269;SDS011;5692;48.956;9.200;2022-11-03T15:00:29;161.85;;;154.07;;
11269;SDS011;5692;48.956;9.200;2022-11-03T15:02:55;156.57;;;149.07;;
11269;SDS011;5692;48.956;9.200;2022-11-03T15:05:21;149.38;;;142.23;;
11269;SDS011;5692;48.956;9.200;2022-11-03T15:08:05;159.25;;;151.65;;
11269;SDS011;5692;48.956;9.200;2022-11-03T15:10:32;154.25;;;146.85;;
11269;SDS011;5692;48.956;9.200;2022-11-03T15:12:58;158.55;;;150.95;;
11269;SDS011;5692;48.956;9.200;2022-11-03T15:15:24;158.20;;;150.60;;
11269;SDS011;5692;48.956;9.200;2022-11-03T15:17:50;157.50;;;149.95;;
11269;SDS011;5692;48.956;9.200;2022-11-03T15:20:16;158.02;;;150.43;;
11269;SDS011;5692;48.956;9.200;2022-11-03T15:22:42;158.90;;;151.30;;
11269;SDS011;5692;48.956;9.200;2022-11-03T15:25:08;161.77;;;154.00;;
11269;SDS011;5692;48.956;9.200;2022-11-03T15:27:34;160.13;;;152.43;;
11269;SDS011;5692;48.956;9.200;2022-11-03T15:30:01;162.40;;;154.60;;